createdAt,value
2022-11-16T00:00:13.098Z,4.099
2022-11-16T00:01:11.549Z,4.300
2022-11-16T00:02:11.923Z,3.700
2022-11-16T00:03:12.068Z,3.599
2022-11-16T00:04:11.870Z,4.599
2022-11-16T00:06:11.881Z,3.900
2022-11-16T00:07:11.580Z,4.300
2022-11-16T00:08:11.251Z,4.599
2022-11-16T00:09:12.043Z,4.800
2022-11-16T00:10:12.007Z,3.900
2022-11-16T00:11:11.769Z,3.5
2022-11-16T00:12:11.899Z,3.400
2022-11-16T00:13:11.789Z,4.199
2022-11-16T00:14:12.087Z,3.599
2022-11-16T00:15:11.811Z,3.700
2022-11-16T00:16:11.531Z,3.900
2022-11-16T00:17:11.342Z,3.099
2022-11-16T00:18:11.316Z,3.599
2022-11-16T00:19:11.461Z,3.400
2022-11-16T00:20:10.961Z,5.300
2022-11-16T00:21:11.486Z,3.599
2022-11-16T00:22:11.344Z,4.099
2022-11-16T00:23:11.689Z,3.900
2022-11-16T00:24:11.446Z,4.599
2022-11-16T00:25:11.909Z,4
2022-11-16T00:26:11.539Z,3.799
2022-11-16T00:27:10.961Z,4.199
2022-11-16T00:28:11.492Z,4.300
2022-11-16T00:29:11.608Z,3.700
2022-11-16T00:30:11.576Z,4.400
2022-11-16T00:31:11.909Z,4.099
2022-11-16T00:32:11.363Z,4.300
2022-11-16T00:33:11.781Z,4
2022-11-16T00:35:11.842Z,3.700
2022-11-16T00:36:11.474Z,3.799
2022-11-16T00:37:11.819Z,3.5
2022-11-16T00:38:11.296Z,4.599
2022-11-16T00:39:11.961Z,3.200
2022-11-16T00:40:11.945Z,4.099
2022-11-16T00:41:11.348Z,4.5
2022-11-16T00:42:11.220Z,4.199
2022-11-16T00:43:11.533Z,4.099
2022-11-16T00:44:11.768Z,4.300
2022-11-16T00:45:11.800Z,3.599
2022-11-16T00:46:11.765Z,3.799
2022-11-16T00:47:11.457Z,5.599
2022-11-16T00:48:10.901Z,3.5
2022-11-16T00:49:11.542Z,4.699
2022-11-16T00:50:11.541Z,4.5
2022-11-16T00:51:11.264Z,4
2022-11-16T00:54:11.870Z,3.5
2022-11-16T00:55:11.645Z,4.800
2022-11-16T00:56:11.100Z,4.300
2022-11-16T00:57:11.672Z,3.5
2022-11-16T00:58:11.384Z,4.599
2022-11-16T00:59:11.222Z,3.400
2022-11-16T01:00:12.712Z,3.599
2022-11-16T01:01:13.207Z,4
2022-11-16T01:02:11.727Z,3.799
2022-11-16T01:03:11.525Z,4
2022-11-16T01:04:11.105Z,5.800
2022-11-16T01:05:12.118Z,4
2022-11-16T01:06:11.380Z,4.699
2022-11-16T01:07:11.348Z,4.400
2022-11-16T01:08:11.478Z,4.800
2022-11-16T01:09:11.368Z,4.400
2022-11-16T01:10:11.902Z,4.900
2022-11-16T01:11:11.143Z,4.699
2022-11-16T01:12:11.694Z,5.300
2022-11-16T01:13:11.995Z,4.300
2022-11-16T01:14:11.765Z,5
2022-11-16T01:15:11.832Z,4.699
2022-11-16T01:16:17.858Z,4.300
2022-11-16T01:17:11.969Z,4.699
2022-11-16T01:18:11.449Z,4
2022-11-16T01:19:12.045Z,4.199
2022-11-16T01:20:11.889Z,4.800
2022-11-16T01:21:11.439Z,4.699
2022-11-16T01:22:11.238Z,4.300
2022-11-16T01:23:11.984Z,4.599
2022-11-16T01:24:11.715Z,4.099
2022-11-16T01:25:11.623Z,4.400
2022-11-16T01:26:11.392Z,3.599
2022-11-16T01:27:11.711Z,4.099
2022-11-16T01:29:11.462Z,3.5
2022-11-16T01:30:11.366Z,4.099
2022-11-16T01:31:11.816Z,3.900
2022-11-16T01:32:25.498Z,4.5
2022-11-16T01:33:11.950Z,3.900
2022-11-16T01:34:11.521Z,3.799
2022-11-16T01:35:12.045Z,4.800
2022-11-16T01:36:11.239Z,3.599
2022-11-16T01:37:11.299Z,4.5
2022-11-16T01:38:11.217Z,3.799
2022-11-16T01:39:11.505Z,3.900
2022-11-16T01:40:11.198Z,3.599
2022-11-16T01:41:11.794Z,3.400
2022-11-16T01:42:11.255Z,3.299
2022-11-16T01:43:11.714Z,3.599
2022-11-16T01:44:11.041Z,3.400
2022-11-16T01:45:11.724Z,3.5
2022-11-16T01:46:11.562Z,3.200
2022-11-16T01:47:11.046Z,2.700
2022-11-16T01:48:11.569Z,2.400
2022-11-16T01:49:11.442Z,1.899
2022-11-16T01:50:11.603Z,2.099
2022-11-16T01:52:11.864Z,1.700
2022-11-16T01:53:11.039Z,1.399
2022-11-16T01:54:11.832Z,2.299
2022-11-16T01:55:11.313Z,1.799
2022-11-16T01:56:11.841Z,1.899
2022-11-16T01:57:11.588Z,1.700
2022-11-16T01:58:11.060Z,1.5
2022-11-16T01:59:11.575Z,1.299
2022-11-16T02:00:11.729Z,1.100
2022-11-16T02:01:11.662Z,2
2022-11-16T02:02:11.352Z,1.600
2022-11-16T02:03:11.416Z,1.799
2022-11-16T02:04:11.047Z,1.100
2022-11-16T02:05:11.516Z,1.399
2022-11-16T02:06:11.041Z,1.100
2022-11-16T02:07:11.588Z,1.5
2022-11-16T02:08:11.242Z,1.100
2022-11-16T02:09:11.502Z,1.5
2022-11-16T02:10:12.044Z,1.600
2022-11-16T02:12:11.799Z,1.5
2022-11-16T02:13:10.888Z,1.600
2022-11-16T02:14:11.388Z,1.799
2022-11-16T02:15:11.088Z,1.600
2022-11-16T02:16:11.111Z,1.700
2022-11-16T02:17:12.075Z,2.099
2022-11-16T02:18:11.266Z,1.100
2022-11-16T02:20:10.966Z,1.5
2022-11-16T02:21:11.588Z,1.200
2022-11-16T02:22:11.067Z,1.899
2022-11-16T02:24:10.841Z,2.400
2022-11-16T02:25:11.425Z,1.799
2022-11-16T02:26:10.884Z,1.700
2022-11-16T02:27:11.343Z,1.200
2022-11-16T02:28:11.012Z,1.299
2022-11-16T02:29:11.118Z,0.800
2022-11-16T02:31:11.487Z,1
2022-11-16T02:32:11.007Z,1.299
2022-11-16T02:33:11.291Z,0.800
2022-11-16T02:34:11.065Z,1.200
2022-11-16T02:35:11.789Z,0.699
2022-11-16T02:36:11.084Z,2.400
2022-11-16T02:37:11.916Z,1.100
2022-11-16T02:38:11.833Z,0.800
2022-11-16T02:40:11.896Z,1.100
2022-11-16T02:41:11.640Z,1
2022-11-16T02:42:11.521Z,1.299
2022-11-16T02:43:11.683Z,0.699
2022-11-16T02:44:11.605Z,0.600
2022-11-16T02:45:12.135Z,0.400
2022-11-16T02:46:11.703Z,0.600
2022-11-16T02:47:11.361Z,0.5
2022-11-16T02:48:11.260Z,0.300
2022-11-16T02:50:11.315Z,0.5
2022-11-16T02:51:11.900Z,0.400
2022-11-16T02:52:11.305Z,0.899
2022-11-16T02:53:11.476Z,0.5
2022-11-16T02:54:11.209Z,0.200
2022-11-16T02:56:11.361Z,0.899
2022-11-16T02:57:12.010Z,0.400
2022-11-16T02:59:15.236Z,0.5
2022-11-16T03:00:12.452Z,0.600
2022-11-16T03:01:11.458Z,0.800
2022-11-16T03:02:11.440Z,1.700
2022-11-16T03:03:10.987Z,0.400
2022-11-16T03:04:11.637Z,1.100
2022-11-16T03:05:11.110Z,0.5
2022-11-16T03:06:11.286Z,0.300
2022-11-16T03:07:12.026Z,1.100
2022-11-16T03:08:11.058Z,0.5
2022-11-16T03:09:11.556Z,0.899
2022-11-16T03:10:11.176Z,0.699
2022-11-16T03:11:11.334Z,0.899
2022-11-16T03:12:11.180Z,0.5
2022-11-16T03:15:11.394Z,0.600
2022-11-16T03:16:11.592Z,0.100
2022-11-16T03:17:11.101Z,0.600
2022-11-16T03:18:11.652Z,0.5
2022-11-16T03:19:11.436Z,0.699
2022-11-16T03:21:11.463Z,0.5
2022-11-16T03:22:11.119Z,0.699
2022-11-16T03:23:10.958Z,1.200
2022-11-16T03:24:11.760Z,0.5
2022-11-16T03:25:11.529Z,0.699
2022-11-16T03:26:11.003Z,0.300
2022-11-16T03:27:11.519Z,1
2022-11-16T03:28:11.230Z,0.200
2022-11-16T03:29:11.330Z,0.300
2022-11-16T03:30:11.284Z,0.600
2022-11-16T03:31:16.191Z,0.5
2022-11-16T03:32:11.151Z,0.300
2022-11-16T03:33:11.826Z,0.5
2022-11-16T03:35:11.894Z,0.600
2022-11-16T03:36:11.579Z,1.299
2022-11-16T03:37:11.301Z,0.800
2022-11-16T03:38:11.115Z,1
2022-11-16T03:39:11.400Z,0.899
2022-11-16T03:40:11.994Z,0.5
2022-11-16T03:42:11.407Z,0.400
2022-11-16T03:43:11.895Z,0.699
2022-11-16T03:44:11.661Z,0.300
2022-11-16T03:45:11.606Z,1.299
2022-11-16T03:46:11.167Z,0.400
2022-11-16T03:48:11.214Z,0.899
2022-11-16T03:49:11.929Z,0.699
2022-11-16T03:51:11.050Z,0.400
2022-11-16T03:52:11.580Z,0.600
2022-11-16T03:53:11.474Z,0.300
2022-11-16T03:54:11.066Z,0.400
2022-11-16T03:55:12.077Z,0.600
2022-11-16T03:56:11.565Z,0.699
2022-11-16T03:59:11.392Z,0.400
2022-11-16T04:00:11.787Z,0.800
2022-11-16T04:01:12.063Z,0.600
2022-11-16T04:02:11.876Z,1.399
2022-11-16T04:03:30.600Z,0.5
2022-11-16T04:06:11.809Z,0.300
2022-11-16T04:07:11.298Z,0.5
2022-11-16T04:08:11.213Z,0.800
2022-11-16T04:09:11.895Z,0.300
2022-11-16T04:10:11.568Z,1.200
2022-11-16T04:11:11.236Z,0.899
2022-11-16T04:12:11.545Z,1.399
2022-11-16T04:13:11.286Z,1.200
2022-11-16T04:14:11.321Z,1.399
2022-11-16T04:15:12.349Z,0.899
2022-11-16T04:16:11.119Z,1.100
2022-11-16T04:17:11.751Z,0.699
2022-11-16T04:18:11.422Z,0.5
2022-11-16T04:19:11.843Z,0.800
2022-11-16T04:20:11.404Z,1
2022-11-16T04:21:11.693Z,0.699
2022-11-16T04:23:11.272Z,0.5
2022-11-16T04:25:11.659Z,0.800
2022-11-16T04:26:11.997Z,1
2022-11-16T04:27:11.834Z,0.800
2022-11-16T04:28:11.516Z,0.699
2022-11-16T04:29:11.460Z,1
2022-11-16T04:30:12.187Z,0.600
2022-11-16T04:31:12.023Z,1
2022-11-16T04:32:12.206Z,0.699
2022-11-16T04:33:11.451Z,0.600
2022-11-16T04:34:11.568Z,1.100
2022-11-16T04:35:11.227Z,1.399
2022-11-16T04:36:12.785Z,0.5
2022-11-16T04:37:11.151Z,0.600
2022-11-16T04:38:12.014Z,0.5
2022-11-16T04:39:11.823Z,0.699
2022-11-16T04:40:11.846Z,0.899
2022-11-16T04:41:11.943Z,0.800
2022-11-16T04:42:12.007Z,1.399
2022-11-16T04:43:12.088Z,0.600
2022-11-16T04:44:11.551Z,1.5
2022-11-16T04:45:11.921Z,1.200
2022-11-16T04:46:11.805Z,1.299
2022-11-16T04:47:11.859Z,1
2022-11-16T04:48:11.584Z,0.899
2022-11-16T04:50:12.111Z,1.200
2022-11-16T04:51:11.891Z,1.100
2022-11-16T04:52:12.163Z,0.899
2022-11-16T04:53:11.915Z,1
2022-11-16T04:54:11.716Z,2
2022-11-16T04:55:11.861Z,1
2022-11-16T04:56:11.561Z,1.299
2022-11-16T04:57:11.189Z,1.100
2022-11-16T04:58:12.324Z,0.899
2022-11-16T04:59:11.178Z,0.800
2022-11-16T05:00:12.070Z,0.699
2022-11-16T05:02:12.363Z,1.700
2022-11-16T05:03:11.088Z,1.5
2022-11-16T05:04:11.803Z,1.100
2022-11-16T05:05:11.990Z,1.200
2022-11-16T05:06:11.890Z,0.899
2022-11-16T05:07:11.580Z,1
2022-11-16T05:08:11.438Z,1.399
2022-11-16T05:09:11.329Z,2.400
2022-11-16T05:10:11.227Z,1.700
2022-11-16T05:11:11.456Z,1.399
2022-11-16T05:12:11.232Z,2
2022-11-16T05:13:11.687Z,1.299
2022-11-16T05:14:11.998Z,2
2022-11-16T05:15:12.136Z,2.299
2022-11-16T05:16:11.893Z,2
2022-11-16T05:17:11.763Z,3.099
2022-11-16T05:18:11.494Z,2.799
2022-11-16T05:19:11.863Z,2.5
2022-11-16T05:20:11.802Z,4.599
2022-11-16T05:21:11.484Z,2.400
2022-11-16T05:22:11.927Z,3.400
2022-11-16T05:23:11.728Z,2.5
2022-11-16T05:24:12.063Z,2.400
2022-11-16T05:25:12.360Z,2.799
2022-11-16T05:26:11.690Z,1.399
2022-11-16T05:27:11.661Z,2.400
2022-11-16T05:29:11.679Z,1.700
2022-11-16T05:30:11.958Z,1.200
2022-11-16T05:31:11.019Z,2.5
2022-11-16T05:32:12.162Z,2.700
2022-11-16T05:33:11.322Z,2.599
2022-11-16T05:34:11.561Z,1.899
2022-11-16T05:35:11.877Z,2.599
2022-11-16T05:36:11.948Z,3
2022-11-16T05:37:12.021Z,1.799
2022-11-16T05:38:11.614Z,2.799
2022-11-16T05:39:12.077Z,3.200
2022-11-16T05:40:11.529Z,2.200
2022-11-16T05:41:11.760Z,3
2022-11-16T05:42:11.919Z,2.799
2022-11-16T05:43:11.857Z,1.799
2022-11-16T05:44:12.121Z,2.799
2022-11-16T05:45:14.902Z,1.600
2022-11-16T05:46:11.624Z,2.200
2022-11-16T05:47:11.689Z,1.799
2022-11-16T05:48:11.728Z,1.600
2022-11-16T05:49:11.554Z,2.799
2022-11-16T05:50:11.725Z,2
2022-11-16T05:51:11.766Z,1.5
2022-11-16T05:52:11.916Z,4.099
2022-11-16T05:53:12.137Z,2.799
2022-11-16T05:54:12.183Z,2.700
2022-11-16T05:55:12.336Z,1.700
2022-11-16T05:56:11.901Z,2.799
2022-11-16T05:57:11.992Z,1.899
2022-11-16T05:58:12.400Z,1.5
2022-11-16T05:59:16.284Z,2.200
2022-11-16T06:00:12.306Z,2
2022-11-16T06:01:11.932Z,1.899
2022-11-16T06:02:12.083Z,2.700
2022-11-16T06:03:11.948Z,2
2022-11-16T06:04:11.360Z,3.5
2022-11-16T06:05:11.767Z,2.200
2022-11-16T06:08:12.335Z,2.299
2022-11-16T06:10:11.576Z,2.900
2022-11-16T06:11:11.481Z,3.200
2022-11-16T06:12:11.597Z,2.900
2022-11-16T06:13:11.803Z,2.5
2022-11-16T06:14:12.013Z,3.099
2022-11-16T06:15:12.293Z,2.5
2022-11-16T06:16:11.533Z,3.299
2022-11-16T06:17:11.931Z,3
2022-11-16T06:18:11.328Z,3.900
2022-11-16T06:20:11.731Z,4
2022-11-16T06:21:11.824Z,4.400
2022-11-16T06:22:12.445Z,5.300
2022-11-16T06:23:11.705Z,5.400
2022-11-16T06:24:12.451Z,3.599
2022-11-16T06:25:11.653Z,4.599
2022-11-16T06:26:11.869Z,3.900
2022-11-16T06:27:11.964Z,4.199
2022-11-16T06:28:12.068Z,3
2022-11-16T06:29:12.295Z,2.799
2022-11-16T06:30:12.065Z,3.799
2022-11-16T06:31:11.282Z,2.799
2022-11-16T06:32:11.639Z,3.299
2022-11-16T06:33:11.511Z,4.400
2022-11-16T06:34:11.443Z,4.300
2022-11-16T06:35:11.444Z,3.599
2022-11-16T06:36:11.979Z,3.099
2022-11-16T06:37:12.041Z,3.799
2022-11-16T06:38:11.457Z,3.200
2022-11-16T06:39:11.695Z,3.299
2022-11-16T06:40:11.694Z,3
2022-11-16T06:41:11.853Z,4
2022-11-16T06:42:11.887Z,3.200
2022-11-16T06:43:11.792Z,3.799
2022-11-16T06:44:12.162Z,5.099
2022-11-16T06:45:12.116Z,4.900
2022-11-16T06:46:12.143Z,3.799
2022-11-16T06:47:11.621Z,3.599
2022-11-16T06:48:12.011Z,4.599
2022-11-16T06:49:11.402Z,3
2022-11-16T06:50:11.643Z,4.099
2022-11-16T06:51:11.428Z,3.900
2022-11-16T06:52:11.555Z,4.900
2022-11-16T06:53:11.651Z,3.700
2022-11-16T06:54:11.627Z,3.599
2022-11-16T06:55:11.820Z,4.800
2022-11-16T06:56:11.763Z,5.800
2022-11-16T06:57:11.889Z,5.5
2022-11-16T06:58:11.980Z,8.600
2022-11-16T06:59:11.830Z,7.099
2022-11-16T07:00:13.097Z,7.199
2022-11-16T07:01:11.381Z,6.199
2022-11-16T07:03:11.926Z,5.599
2022-11-16T07:04:12.153Z,5.099
2022-11-16T07:05:12.343Z,5.599
2022-11-16T07:06:11.475Z,5.199
2022-11-16T07:07:11.600Z,5.5
2022-11-16T07:08:11.476Z,5.099
2022-11-16T07:09:11.877Z,4.5
2022-11-16T07:10:12.084Z,4.199
2022-11-16T07:11:12.258Z,5.099
2022-11-16T07:12:12.228Z,4.099
2022-11-16T07:13:12.265Z,5.400
2022-11-16T07:14:11.626Z,5.099
2022-11-16T07:15:12.122Z,5.5
2022-11-16T07:16:11.436Z,4.900
2022-11-16T07:17:11.575Z,3.900
2022-11-16T07:18:11.996Z,4.400
2022-11-16T07:19:12.244Z,5.199
2022-11-16T07:20:11.690Z,4.300
2022-11-16T07:21:11.880Z,3.5
2022-11-16T07:22:11.920Z,5
2022-11-16T07:23:14.349Z,5.5
2022-11-16T07:24:12.102Z,6.099
2022-11-16T07:25:12.450Z,4.699
2022-11-16T07:26:11.765Z,5.5
2022-11-16T07:27:12.118Z,5
2022-11-16T07:28:12.290Z,4.5
2022-11-16T07:29:12.487Z,3.700
2022-11-16T07:30:12.184Z,5
2022-11-16T07:31:12.563Z,3.299
2022-11-16T07:32:11.735Z,4.699
2022-11-16T07:33:12.297Z,3.5
2022-11-16T07:34:11.617Z,4.599
2022-11-16T07:35:12.027Z,5.199
2022-11-16T07:36:12.150Z,3.700
2022-11-16T07:37:12.217Z,3.5
2022-11-16T07:38:15.409Z,4.5
2022-11-16T07:39:11.723Z,3.299
2022-11-16T07:40:12.260Z,4.400
2022-11-16T07:41:11.075Z,3.299
2022-11-16T07:42:12.354Z,4.900
2022-11-16T07:43:11.711Z,4.5
2022-11-16T07:45:11.801Z,4.800
2022-11-16T07:46:45.343Z,4.900
2022-11-16T07:47:12.051Z,4.699
2022-11-16T07:48:12.226Z,5.300
2022-11-16T07:49:12.311Z,4.400
2022-11-16T07:50:11.611Z,3.700
2022-11-16T07:51:11.704Z,3.900
2022-11-16T07:52:11.780Z,3.700
2022-11-16T07:53:12.459Z,4.599
2022-11-16T07:54:12.049Z,4.5
2022-11-16T07:55:12.462Z,5.599
2022-11-16T07:56:11.220Z,6.099
2022-11-16T07:57:11.616Z,3.400
2022-11-16T07:58:11.741Z,4.300
2022-11-16T07:59:11.819Z,4.800
2022-11-16T08:02:11.814Z,3.799
2022-11-16T08:03:12.177Z,3.700
2022-11-16T08:04:12.019Z,4
2022-11-16T08:05:12.126Z,3.400
2022-11-16T08:06:11.432Z,5.5
2022-11-16T08:07:11.737Z,4.599
2022-11-16T08:08:12.382Z,5.400
2022-11-16T08:09:11.902Z,3.900
2022-11-16T08:10:12.159Z,3.099
2022-11-16T08:11:11.305Z,3.299
2022-11-16T08:12:11.142Z,5.800
2022-11-16T08:13:11.274Z,4.5
2022-11-16T08:14:11.494Z,4.599
2022-11-16T08:15:11.455Z,4
2022-11-16T08:16:11.720Z,4.800
2022-11-16T08:17:11.777Z,5.599
2022-11-16T08:18:12.074Z,5.5
2022-11-16T08:19:16.991Z,5.300
2022-11-16T08:20:12.323Z,5.5
2022-11-16T08:21:16.687Z,5.099
2022-11-16T08:22:12.061Z,5.699
2022-11-16T08:23:16.742Z,5
2022-11-16T08:24:12.394Z,6.5
2022-11-16T08:25:17.292Z,3.700
2022-11-16T08:26:12.717Z,6.699
2022-11-16T08:27:17.897Z,4.699
2022-11-16T08:28:11.535Z,4.800
2022-11-16T08:29:12.601Z,5.5
2022-11-16T08:30:13.381Z,6.699
2022-11-16T08:31:12.289Z,5.400
2022-11-16T08:32:12.341Z,6.300
2022-11-16T08:33:19.999Z,5.099
2022-11-16T08:35:20.277Z,6.400
2022-11-16T08:36:13.936Z,4.800
2022-11-16T08:37:12.535Z,5.599
2022-11-16T08:38:13.714Z,5.699
2022-11-16T08:39:14.806Z,6
2022-11-16T08:40:12.621Z,5.5
2022-11-16T08:41:15.308Z,5.099
2022-11-16T08:42:12.755Z,4.5
2022-11-16T08:43:12.369Z,4.099
2022-11-16T08:44:12.253Z,4.599
2022-11-16T08:45:12.202Z,4.300
2022-11-16T08:46:12.760Z,4.699
2022-11-16T08:47:27.576Z,3.299
2022-11-16T08:48:12.533Z,3.5
2022-11-16T08:49:13.040Z,4.400
2022-11-16T08:50:12.778Z,4.099
2022-11-16T08:51:17.977Z,4.800
2022-11-16T08:52:11.845Z,5.099
2022-11-16T08:53:12.783Z,4.800
2022-11-16T08:54:12.883Z,4.300
2022-11-16T08:55:12.509Z,5.099
2022-11-16T08:56:11.946Z,4.599
2022-11-16T08:57:13.016Z,4.5
2022-11-16T08:58:11.954Z,6
2022-11-16T08:59:12.211Z,3.400
2022-11-16T09:00:13.705Z,5.699
2022-11-16T09:01:12.342Z,4.599
2022-11-16T09:02:13.125Z,5.199
2022-11-16T09:03:12.235Z,7
2022-11-16T09:04:12.662Z,4.699
2022-11-16T09:05:12.310Z,5.800
2022-11-16T09:06:12.167Z,5
2022-11-16T09:07:12.375Z,6.199
2022-11-16T09:08:11.853Z,4.900
2022-11-16T09:09:12.172Z,5
2022-11-16T09:10:12.099Z,4.800
2022-11-16T09:11:12.079Z,4.300
2022-11-16T09:12:13.222Z,3.400
2022-11-16T09:13:11.606Z,4.400
2022-11-16T09:14:12.021Z,4.199
2022-11-16T09:15:12.423Z,5.199
2022-11-16T09:16:11.944Z,4.099
2022-11-16T09:17:12.405Z,5.099
2022-11-16T09:18:11.630Z,5.400
2022-11-16T09:19:12.018Z,4.800
2022-11-16T09:20:12.389Z,4.599
2022-11-16T09:21:11.545Z,4.900
2022-11-16T09:22:12.055Z,6.300
2022-11-16T09:23:11.937Z,4.900
2022-11-16T09:25:12.734Z,3.900
2022-11-16T09:26:11.722Z,6.699
2022-11-16T09:27:12.380Z,5
2022-11-16T09:28:11.753Z,3.900
2022-11-16T09:29:11.959Z,4.300
2022-11-16T09:30:12.478Z,4.199
2022-11-16T09:31:11.912Z,4.900
2022-11-16T09:32:12.082Z,5.099
2022-11-16T09:33:12.381Z,4.400
2022-11-16T09:34:12.029Z,6.800
2022-11-16T09:35:12.063Z,5.5
2022-11-16T09:36:11.689Z,5.400
2022-11-16T09:37:12.157Z,5
2022-11-16T09:38:14.861Z,5.099
2022-11-16T09:39:30.033Z,5.599
2022-11-16T09:40:12.374Z,6.199
2022-11-16T09:41:12.094Z,4.800
2022-11-16T09:42:11.473Z,5.5
2022-11-16T09:43:11.702Z,7.099
2022-11-16T09:44:12.050Z,7.5
2022-11-16T09:45:12.363Z,7.300
2022-11-16T09:46:11.800Z,4.800
2022-11-16T09:47:11.761Z,7.800
2022-11-16T09:48:12.118Z,8.600
2022-11-16T09:49:17.172Z,6.900
2022-11-16T09:50:12.252Z,5.300
2022-11-16T09:51:11.420Z,7.300
2022-11-16T09:52:12.103Z,6.5
2022-11-16T09:53:11.666Z,6.699
2022-11-16T09:54:12.334Z,5.699
2022-11-16T09:55:15.946Z,5.599
2022-11-16T09:56:14.511Z,6
2022-11-16T09:57:12.811Z,6.900
2022-11-16T09:58:12.224Z,6
2022-11-16T09:59:17.832Z,6.5
2022-11-16T10:00:12.207Z,4.800
2022-11-16T10:01:11.939Z,6
2022-11-16T10:03:12.599Z,5.199
2022-11-16T10:04:11.952Z,5.099
2022-11-16T10:06:11.776Z,6.099
2022-11-16T10:07:12.197Z,3.900
2022-11-16T10:08:12.177Z,5
2022-11-16T10:09:11.990Z,5.199
2022-11-16T10:10:12.851Z,5
2022-11-16T10:11:12.004Z,6.599
2022-11-16T10:12:11.920Z,4.599
2022-11-16T10:13:12.335Z,5
2022-11-16T10:14:11.784Z,5.199
2022-11-16T10:15:12.106Z,4.5
2022-11-16T10:16:11.549Z,5.300
2022-11-16T10:17:12.523Z,4.699
2022-11-16T10:18:12.276Z,6.599
2022-11-16T10:19:12.261Z,7.800
2022-11-16T10:20:11.892Z,5.099
2022-11-16T10:21:12.224Z,5.599
2022-11-16T10:22:11.865Z,4.900
2022-11-16T10:23:12.311Z,5.300
2022-11-16T10:24:12.200Z,4.900
2022-11-16T10:25:11.909Z,5.5
2022-11-16T10:26:12.427Z,5.199
2022-11-16T10:27:11.998Z,6.5
2022-11-16T10:28:11.781Z,4.699
2022-11-16T10:29:11.921Z,4.800
2022-11-16T10:30:13.005Z,7.199
2022-11-16T10:31:12.204Z,4.800
2022-11-16T10:32:12.411Z,4.300
2022-11-16T10:33:12.266Z,4.199
2022-11-16T10:34:11.971Z,4.300
2022-11-16T10:35:12.129Z,2.900
2022-11-16T10:36:11.773Z,4.199
2022-11-16T10:38:13.908Z,4.400
2022-11-16T10:39:12.435Z,4.300
2022-11-16T10:40:12.124Z,4.199
2022-11-16T10:41:12.356Z,4.800
2022-11-16T10:42:11.341Z,4.099
2022-11-16T10:43:11.869Z,5.400
2022-11-16T10:45:12.617Z,4.400
2022-11-16T10:46:16.963Z,6
2022-11-16T10:47:12.726Z,3.400
2022-11-16T10:48:12.080Z,4.699
2022-11-16T10:49:12.575Z,4
2022-11-16T10:50:17.804Z,4.599
2022-11-16T10:51:12.228Z,5.5
2022-11-16T10:52:16.616Z,4.300
2022-11-16T10:53:11.636Z,4.900
2022-11-16T10:54:12.129Z,5.300
2022-11-16T10:55:12.686Z,5.900
2022-11-16T10:56:12.095Z,5.199
2022-11-16T10:57:11.610Z,4.400
2022-11-16T10:58:11.739Z,5.5
2022-11-16T10:59:12.145Z,4.900
2022-11-16T11:00:22.376Z,4.699
2022-11-16T11:01:11.832Z,4.5
2022-11-16T11:02:24.813Z,3.400
2022-11-16T11:04:11.579Z,5.599
2022-11-16T11:05:09.809Z,4.300
2022-11-16T11:07:12.147Z,5.900
2022-11-16T11:08:11.841Z,6.300
2022-11-16T11:09:11.586Z,4.5
2022-11-16T11:10:12.343Z,3.599
2022-11-16T11:11:11.907Z,3.900
2022-11-16T11:12:11.751Z,3.599
2022-11-16T11:13:11.547Z,5.400
2022-11-16T11:14:11.626Z,5.099
2022-11-16T11:15:13.582Z,4.800
2022-11-16T11:16:11.348Z,7.099
2022-11-16T11:17:11.846Z,3.299
2022-11-16T11:18:11.465Z,3.799
2022-11-16T11:19:11.681Z,3.599
2022-11-16T11:20:11.640Z,6.900
2022-11-16T11:21:11.594Z,4.099
2022-11-16T11:22:11.657Z,5.099
2022-11-16T11:23:11.213Z,5.5
2022-11-16T11:24:42.738Z,3.400
2022-11-16T11:25:11.540Z,5.699
2022-11-16T11:26:11.418Z,4
2022-11-16T11:27:11.859Z,5.5
2022-11-16T11:28:11.629Z,3.400
2022-11-16T11:29:11.617Z,4.699
2022-11-16T11:30:11.295Z,3.599
2022-11-16T11:31:11.879Z,5.400
2022-11-16T11:32:11.613Z,4.699
2022-11-16T11:33:11.615Z,3.299
2022-11-16T11:34:11.926Z,4.599
2022-11-16T11:35:12.042Z,4.5
2022-11-16T11:36:11.722Z,5.599
2022-11-16T11:37:11.573Z,4.5
2022-11-16T11:38:11.675Z,5
2022-11-16T11:39:11.885Z,4.900
2022-11-16T11:40:11.771Z,4.400
2022-11-16T11:41:11.653Z,3.799
2022-11-16T11:42:12.071Z,4.699
2022-11-16T11:43:17.698Z,5.300
2022-11-16T11:44:11.492Z,5.099
2022-11-16T11:45:11.309Z,3.299
2022-11-16T11:46:12.440Z,3.599
2022-11-16T11:47:55.640Z,4.099
2022-11-16T11:48:13.372Z,3.599
2022-11-16T11:50:12.038Z,4.400
2022-11-16T11:51:11.674Z,3.900
2022-11-16T11:52:11.662Z,3.799
2022-11-16T11:53:11.408Z,3.900
2022-11-16T11:54:12.387Z,3.799
2022-11-16T11:55:12.104Z,5
2022-11-16T11:56:12.153Z,2.5
2022-11-16T11:57:11.671Z,6.199
2022-11-16T11:58:12.212Z,3.900
2022-11-16T11:59:11.719Z,4.5
2022-11-16T12:01:11.612Z,4.400
2022-11-16T12:02:11.383Z,4
2022-11-16T12:03:12.190Z,4.300
2022-11-16T12:04:11.708Z,4.599
2022-11-16T12:05:11.471Z,3.200
2022-11-16T12:06:12.250Z,3.400
2022-11-16T12:07:12.233Z,4.199
2022-11-16T12:08:11.533Z,3.599
2022-11-16T12:09:11.902Z,4.599
2022-11-16T12:10:12.046Z,4.300
2022-11-16T12:11:12.060Z,3.900
2022-11-16T12:12:14.637Z,5.300
2022-11-16T12:13:12.500Z,4.400
2022-11-16T12:14:12.300Z,3.900
2022-11-16T12:15:11.462Z,3.599
2022-11-16T12:16:11.561Z,4.099
2022-11-16T12:17:11.808Z,3.299
2022-11-16T12:18:11.995Z,4.300
2022-11-16T12:19:12.030Z,3.400
2022-11-16T12:20:12.337Z,3.299
2022-11-16T12:21:12.137Z,3.900
2022-11-16T12:22:12.441Z,4.199
2022-11-16T12:23:11.816Z,2.299
2022-11-16T12:24:12.490Z,2.5
2022-11-16T12:25:12.147Z,2.700
2022-11-16T12:26:11.530Z,4.599
2022-11-16T12:27:11.705Z,3.900
2022-11-16T12:28:11.805Z,5.800
2022-11-16T12:29:12.062Z,3.900
2022-11-16T12:30:12.466Z,2.5
2022-11-16T12:31:12.215Z,2.400
2022-11-16T12:32:11.992Z,3.599
2022-11-16T12:33:12.134Z,2.299
2022-11-16T12:34:12.304Z,3.099
2022-11-16T12:35:12.175Z,3.799
2022-11-16T12:36:12.064Z,3.700
2022-11-16T12:37:12.404Z,3.5
2022-11-16T12:38:11.884Z,4.199
2022-11-16T12:39:11.555Z,4
2022-11-16T12:40:11.893Z,2.900
2022-11-16T12:41:12.178Z,4
2022-11-16T12:42:12.340Z,3.099
2022-11-16T12:43:12.034Z,3.400
2022-11-16T12:44:12.763Z,2.299
2022-11-16T12:45:12.079Z,3.099
2022-11-16T12:46:11.924Z,3.700
2022-11-16T12:47:12.220Z,2.200
2022-11-16T12:48:12.142Z,4
2022-11-16T12:49:12.660Z,3.200
2022-11-16T12:50:14.064Z,2.799
2022-11-16T12:51:12.358Z,3.599
2022-11-16T12:52:12.207Z,3.200
2022-11-16T12:53:11.873Z,4
2022-11-16T12:54:12.933Z,2.799
2022-11-16T12:55:26.027Z,3.900
2022-11-16T12:56:13.190Z,5.599
2022-11-16T12:57:12.469Z,4.300
2022-11-16T12:58:12.174Z,4.900
2022-11-16T12:59:11.703Z,3.400
2022-11-16T13:00:13.009Z,3.900
2022-11-16T13:01:12.297Z,4.400
2022-11-16T13:02:11.749Z,4.300
2022-11-16T13:03:12.199Z,4.400
2022-11-16T13:04:12.360Z,3.099
2022-11-16T13:05:12.152Z,4.199
2022-11-16T13:06:11.645Z,3.799
2022-11-16T13:07:12.043Z,3.200
2022-11-16T13:08:12.227Z,4.300
2022-11-16T13:09:12.353Z,3.799
2022-11-16T13:10:11.788Z,3.400
2022-11-16T13:11:12.342Z,4.599
2022-11-16T13:12:11.614Z,4.099
2022-11-16T13:13:35.380Z,4.300
2022-11-16T13:14:11.701Z,3.400
2022-11-16T13:16:12.248Z,4.099
2022-11-16T13:17:17.553Z,3.799
2022-11-16T13:18:11.765Z,3.700
2022-11-16T13:20:15.003Z,6.199
2022-11-16T13:21:12.999Z,5.599
2022-11-16T13:22:13.014Z,4.099
2022-11-16T13:23:11.848Z,2.400
2022-11-16T13:24:12.247Z,4
2022-11-16T13:25:11.883Z,3.700
2022-11-16T13:26:12.217Z,4.300
2022-11-16T13:27:11.595Z,4.400
2022-11-16T13:28:11.794Z,4.199
2022-11-16T13:29:11.962Z,3.400
2022-11-16T13:30:12.635Z,5
2022-11-16T13:31:11.813Z,3.400
2022-11-16T13:32:12.097Z,3.900
2022-11-16T13:33:11.695Z,4.5
2022-11-16T13:34:11.581Z,4.599
2022-11-16T13:35:11.459Z,5.699
2022-11-16T13:36:11.621Z,3.5
2022-11-16T13:37:25.597Z,3.099
2022-11-16T13:38:11.929Z,4.099
2022-11-16T13:39:12.993Z,2
2022-11-16T13:40:11.744Z,3.299
2022-11-16T13:41:11.722Z,5
2022-11-16T13:42:11.866Z,3.599
2022-11-16T13:43:12.040Z,4.199
2022-11-16T13:44:11.507Z,3.200
2022-11-16T13:45:11.815Z,3.700
2022-11-16T13:46:22.324Z,5.400
2022-11-16T13:47:12.134Z,4.400
2022-11-16T13:48:11.939Z,3.099
2022-11-16T13:49:11.980Z,4.800
2022-11-16T13:50:12.076Z,4.099
2022-11-16T13:51:11.908Z,4
2022-11-16T13:52:23.065Z,4.199
2022-11-16T13:54:10.931Z,4.400
2022-11-16T13:54:44.478Z,3.099
2022-11-16T13:55:11.956Z,4.900
2022-11-16T13:56:11.977Z,3.700
2022-11-16T13:57:11.648Z,3